Terminal Aerodrome Forecast
Issued by NWS Louisville, KY

Home | Current Version | Previous Version | Text Only | Print | Product List | Glossary On
Versions: 1 2 3 4 5 6 7 8 9 10 11 12 13 14 15 16 17 18 19 20 21
000
FTUS43 KLMK 171124
TAFLEX
TAF
KLEX 171124Z 1712/1812 20012KT 6SM -SHRA BKN012 WS020/20043KT
     FM171300 21014KT P6SM VCSH OVC013
     FM171700 24013KT P6SM BKN050
     FM180000 27010KT P6SM BKN014=

USA.gov is the U.S. government's official web portal to all federal, state and local government web resources and services.